Time;durP1;ratioP1;P1;durP2;ratioP2;P2;SDS_P1;SDS_P2;PMS_P1;PMS_P2;Temp;Humidity;BMP_temperature;BMP_pressure;BME280_temperature;BME280_humidity;BME280_pressure;Samples;Min_cycle;Max_cycle;Signal;HPM_P1;HPM_P2
2022/08/13 00:01:23;;;;;;;2.93;2.73;;;19.60;99.90;;;;;;5076839;28;20184;-70
2022/08/13 00:03:52;;;;;;;3.00;2.77;;;19.50;99.90;;;;;;5077267;28;20180;-70
2022/08/13 00:09:04;;;;;;;3.20;3.00;;;19.40;99.90;;;;;;5077908;28;20643;-71
2022/08/13 00:14:22;;;;;;;4.33;4.03;;;19.30;99.90;;;;;;5077595;28;20248;-71
2022/08/13 00:16:49;;;;;;;3.63;2.70;;;19.30;99.90;;;;;;5077055;28;20203;-71
2022/08/13 00:19:15;;;;;;;4.93;2.77;;;19.20;99.90;;;;;;5090951;28;20604;-71
2022/08/13 00:21:41;;;;;;;4.47;2.93;;;19.20;99.90;;;;;;5076139;28;20182;-70
2022/08/13 00:24:07;;;;;;;5.33;2.70;;;19.10;99.90;;;;;;5076033;28;20183;-71
2022/08/13 00:26:33;;;;;;;3.97;3.57;;;18.90;99.90;;;;;;5075962;28;20167;-71
2022/08/13 00:29:00;;;;;;;4.13;3.00;;;18.90;99.90;;;;;;5076466;28;20175;-71
2022/08/13 00:31:28;;;;;;;3.47;3.27;;;18.90;99.90;;;;;;5076390;28;20196;-70
2022/08/13 00:33:58;;;;;;;4.33;3.60;;;18.20;99.90;;;;;;5076916;28;20290;-70
2022/08/13 00:36:24;;;;;;;4.27;3.87;;;17.20;99.90;;;;;;5076485;28;20179;-71
2022/08/13 00:38:52;;;;;;;6.60;3.40;;;18.50;99.90;;;;;;5076190;28;20179;-71
2022/08/13 00:41:37;;;;;;;4.93;2.90;;;18.40;99.90;;;;;;5082570;28;20178;-70
2022/08/13 00:44:04;;;;;;;7.90;3.70;;;18.30;99.90;;;;;;5076401;28;20198;-70
2022/08/13 00:46:31;;;;;;;3.50;3.20;;;18.20;99.90;;;;;;5076169;28;20185;-73
2022/08/13 00:48:57;;;;;;;4.67;4.37;;;18.00;99.90;;;;;;5077384;28;20183;-71
2022/08/13 00:51:26;;;;;;;3.47;3.17;;;17.60;99.90;;;;;;5076738;28;20620;-73
2022/08/13 00:53:54;;;;;;;4.17;3.40;;;16.20;99.90;;;;;;5076222;28;20198;-71
2022/08/13 00:56:22;;;;;;;3.93;3.50;;;15.80;99.90;;;;;;5076383;28;20183;-71
2022/08/13 00:58:49;;;;;;;6.13;3.30;;;-25.10;97.20;;;;;;5075673;28;20191;-70
2022/08/13 01:01:15;;;;;;;2.73;2.53;;;-26.20;96.70;;;;;;5076579;28;20579;-71
2022/08/13 01:03:42;;;;;;;3.23;2.90;;;-24.30;97.20;;;;;;5076692;28;20186;-71
2022/08/13 01:06:09;;;;;;;5.60;3.37;;;-20.70;98.50;;;;;;5079906;28;20564;-71
2022/08/13 01:08:40;;;;;;;2.90;2.70;;;-23.80;97.80;;;;;;5079697;28;20236;-71
2022/08/13 01:11:12;;;;;;;3.30;2.73;;;-23.00;98.50;;;;;;5080706;28;20183;-70
2022/08/13 01:13:40;;;;;;;3.40;3.10;;;-21.30;99.10;;;;;;5079169;28;20199;-71
2022/08/13 01:16:13;;;;;;;3.97;3.67;;;-20.40;99.70;;;;;;5080571;28;20232;-71
2022/08/13 01:18:45;;;;;;;3.13;2.80;;;-21.50;99.40;;;;;;5079884;28;20175;-71
2022/08/13 01:21:24;;;;;;;3.87;2.67;;;-19.80;99.80;;;;;;5092397;28;20573;-71
2022/08/13 01:23:52;;;;;;;2.70;2.50;;;-22.60;99.10;;;;;;5079104;28;20179;-70
2022/08/13 01:26:20;;;;;;;2.70;2.60;;;-22.90;99.00;;;;;;5084861;28;20183;-71
2022/08/13 01:28:48;;;;;;;2.60;2.40;;;-21.40;99.30;;;;;;5078816;28;20582;-70
2022/08/13 01:31:15;;;;;;;3.30;3.00;;;-21.70;98.80;;;;;;5079526;28;20536;-69
2022/08/13 01:33:43;;;;;;;3.13;2.93;;;-23.40;98.50;;;;;;5079210;28;20285;-71
2022/08/13 01:36:10;;;;;;;3.73;3.43;;;-18.20;99.90;;;;;;5079741;28;20639;-70
2022/08/13 01:38:38;;;;;;;3.87;3.63;;;-16.70;99.90;;;;;;5080256;28;20187;-70
2022/08/13 01:41:08;;;;;;;3.90;2.60;;;-14.90;99.90;;;;;;5078166;28;20485;-72
2022/08/13 01:43:38;;;;;;;2.90;2.60;;;-15.60;99.90;;;;;;5079892;28;20175;-73
2022/08/13 01:46:05;;;;;;;2.97;2.77;;;-17.60;99.90;;;;;;5079631;28;20189;-72
2022/08/13 01:51:24;;;;;;;4.73;2.93;;;-15.40;99.90;;;;;;5084372;28;20264;-70
2022/08/13 01:53:52;;;;;;;2.70;2.60;;;-16.40;99.90;;;;;;5078976;28;20209;-70
2022/08/13 01:56:21;;;;;;;3.30;3.10;;;-14.50;99.90;;;;;;5079744;28;20175;-72
2022/08/13 01:58:51;;;;;;;2.93;2.73;;;-14.30;99.90;;;;;;5080047;28;20241;-71
2022/08/13 02:01:17;;;;;;;4.10;3.00;;;-14.70;99.90;;;;;;5078798;28;20188;-70
2022/08/13 02:03:49;;;;;;;5.07;3.07;;;-16.40;99.90;;;;;;5079212;28;20258;-70
2022/08/13 02:06:27;;;;;;;4.30;3.13;;;-12.90;99.90;;;;;;5079023;28;20202;-70
2022/08/13 02:08:59;;;;;;;6.40;3.43;;;-14.80;99.90;;;;;;5079051;28;20221;-71
2022/08/13 02:11:32;;;;;;;3.00;2.50;;;-12.00;99.90;;;;;;5088808;28;20190;-72
2022/08/13 02:14:00;;;;;;;3.17;2.80;;;-13.60;99.90;;;;;;5078368;28;20240;-72
2022/08/13 02:16:34;;;;;;;3.10;2.93;;;-16.20;99.90;;;;;;5078346;28;20171;-72
2022/08/13 02:19:01;;;;;;;3.20;3.00;;;-13.40;99.90;;;;;;5083502;28;20575;-70
2022/08/13 02:21:31;;;;;;;4.83;3.37;;;-14.90;99.90;;;;;;5079396;28;20190;-70
2022/08/13 02:23:58;;;;;;;5.83;3.90;;;-11.70;99.90;;;;;;5079176;28;20171;-70
2022/08/13 02:26:27;;;;;;;3.87;3.53;;;-9.30;99.90;;;;;;5078427;28;20183;-70
2022/08/13 02:28:57;;;;;;;3.73;3.17;;;-10.90;99.90;;;;;;5083098;28;20207;-70
2022/08/13 02:31:26;;;;;;;2.60;2.50;;;-11.60;99.90;;;;;;5078371;28;20290;-70
2022/08/13 02:33:52;;;;;;;4.50;3.27;;;-10.40;99.90;;;;;;5077761;28;20203;-70
2022/08/13 02:36:21;;;;;;;3.03;2.80;;;-9.40;99.90;;;;;;5079552;28;20179;-71
2022/08/13 02:39:00;;;;;;;4.43;3.50;;;-9.40;99.90;;;;;;5078755;28;20582;-70
2022/08/13 02:41:38;;;;;;;3.50;3.20;;;-9.20;99.90;;;;;;5079025;28;20284;-72
2022/08/13 02:44:10;;;;;;;3.03;2.83;;;-10.00;99.90;;;;;;5077864;28;20178;-72
2022/08/13 02:46:37;;;;;;;3.33;3.13;;;-10.70;99.90;;;;;;5077935;28;20183;-73
2022/08/13 02:49:03;;;;;;;6.40;3.20;;;-12.60;99.90;;;;;;5078234;28;20183;-71
2022/08/13 02:51:31;;;;;;;4.13;3.80;;;-15.80;99.90;;;;;;5078158;28;20274;-71
2022/08/13 02:53:59;;;;;;;3.20;2.93;;;-16.60;99.90;;;;;;5083699;28;20211;-76
2022/08/13 02:56:26;;;;;;;3.90;3.57;;;-15.80;99.90;;;;;;5079672;28;20602;-72
2022/08/13 02:58:52;;;;;;;3.33;2.50;;;-14.10;99.90;;;;;;5083427;28;20240;-71
2022/08/13 03:01:19;;;;;;;8.20;4.10;;;-14.30;99.90;;;;;;5077127;28;20180;-70
2022/08/13 03:03:45;;;;;;;3.73;3.43;;;-11.10;99.90;;;;;;5078526;28;20214;-70
2022/08/13 03:06:10;;;;;;;4.03;3.57;;;-12.30;99.90;;;;;;5078425;28;20203;-72
2022/08/13 03:08:37;;;;;;;4.57;3.27;;;-12.10;99.90;;;;;;5081007;28;20229;-71
2022/08/13 03:11:04;;;;;;;3.00;2.70;;;-15.90;99.90;;;;;;5077815;28;20170;-71
2022/08/13 03:13:36;;;;;;;4.13;3.47;;;-16.50;99.90;;;;;;5078261;28;20195;-72
2022/08/13 03:16:03;;;;;;;3.10;2.87;;;-15.20;99.90;;;;;;5077291;28;20171;-72
2022/08/13 03:18:30;;;;;;;4.30;3.90;;;-13.50;99.90;;;;;;5077114;28;20171;-72
2022/08/13 03:20:58;;;;;;;8.73;4.43;;;-15.10;99.90;;;;;;5077028;28;20186;-72
2022/08/13 03:23:24;;;;;;;3.47;3.17;;;-14.90;99.90;;;;;;5077581;28;20183;-73
2022/08/13 03:25:50;;;;;;;3.50;3.20;;;-12.80;99.90;;;;;;5077875;28;20190;-76
2022/08/13 03:28:16;;;;;;;6.07;2.93;;;-13.80;99.90;;;;;;5081579;28;20282;-77
2022/08/13 03:30:43;;;;;;;3.47;3.20;;;-12.70;99.90;;;;;;5077958;28;20233;-76
2022/08/13 03:33:17;;;;;;;3.50;3.30;;;-13.10;99.90;;;;;;5077346;28;20226;-71
2022/08/13 03:35:44;;;;;;;3.60;3.03;;;-14.60;99.90;;;;;;5077061;28;20179;-78
2022/08/13 03:38:12;;;;;;;4.73;2.67;;;17.30;99.90;;;;;;5077660;28;20593;-71
2022/08/13 03:43:23;;;;;;;4.67;3.50;;;17.50;99.90;;;;;;5077703;28;20264;-72
2022/08/13 03:45:49;;;;;;;4.10;3.53;;;17.50;99.90;;;;;;5077969;28;20187;-71
2022/08/13 03:48:16;;;;;;;3.57;3.30;;;17.50;99.90;;;;;;5076547;28;20186;-70
2022/08/13 03:50:46;;;;;;;2.87;2.73;;;17.40;99.90;;;;;;5077786;28;20233;-71
2022/08/13 03:53:13;;;;;;;4.37;3.97;;;17.40;99.90;;;;;;5077561;28;20218;-70
2022/08/13 03:55:39;;;;;;;6.40;3.37;;;17.30;99.90;;;;;;5076312;28;20202;-69
2022/08/13 03:58:09;;;;;;;3.57;3.27;;;17.30;99.90;;;;;;5076448;28;20224;-71
2022/08/13 04:00:41;;;;;;;4.13;3.77;;;17.20;99.90;;;;;;5076707;28;20183;-70
2022/08/13 04:03:37;;;;;;;3.07;2.87;;;17.20;99.90;;;;;;5081692;28;20670;-70
2022/08/13 04:06:19;;;;;;;3.87;2.97;;;17.10;99.90;;;;;;5076475;28;20237;-70
2022/08/13 04:08:47;;;;;;;4.60;3.20;;;17.10;99.90;;;;;;5077243;28;20235;-70
2022/08/13 04:11:17;;;;;;;3.47;3.17;;;16.90;99.90;;;;;;5077216;28;20207;-70
2022/08/13 04:13:44;;;;;;;7.97;4.27;;;16.80;99.90;;;;;;5076266;28;20203;-71
2022/08/13 04:16:20;;;;;;;5.03;2.80;;;16.80;99.90;;;;;;5076619;28;20226;-71
2022/08/13 04:18:48;;;;;;;3.30;3.00;;;16.70;99.90;;;;;;5076475;28;20483;-69
2022/08/13 04:21:15;;;;;;;13.90;5.17;;;16.50;99.90;;;;;;5076526;28;20175;-70
2022/08/13 04:23:43;;;;;;;3.63;3.33;;;16.20;99.90;;;;;;5083963;28;20257;-70
2022/08/13 04:26:16;;;;;;;3.73;2.87;;;15.90;99.90;;;;;;5077141;28;20304;-70
2022/08/13 04:28:43;;;;;;;4.13;3.73;;;14.80;99.90;;;;;;5077370;28;20266;-71
2022/08/13 04:31:10;;;;;;;5.00;3.37;;;-12.60;99.90;;;;;;5076783;28;20192;-71
2022/08/13 04:33:37;;;;;;;2.57;2.47;;;-15.20;99.90;;;;;;5075545;28;20202;-72
2022/08/13 04:36:04;;;;;;;4.33;3.00;;;-12.80;99.90;;;;;;5075986;28;20183;-69
2022/08/13 04:38:30;;;;;;;3.50;3.20;;;-14.00;99.90;;;;;;5076449;28;20181;-70
2022/08/13 04:40:56;;;;;;;3.37;3.07;;;-13.00;99.90;;;;;;5076796;28;20167;-70
2022/08/13 04:43:22;;;;;;;5.10;3.77;;;-14.50;99.90;;;;;;5076730;28;20259;-70
2022/08/13 04:45:48;;;;;;;3.20;3.00;;;-11.40;99.90;;;;;;5076648;28;20317;-70
2022/08/13 04:48:15;;;;;;;4.47;4.10;;;-13.90;99.90;;;;;;5082232;28;20610;-69
2022/08/13 04:50:44;;;;;;;3.60;3.30;;;-14.30;99.90;;;;;;5075764;28;20191;-72
2022/08/13 04:53:20;;;;;;;5.83;3.93;;;-13.70;99.90;;;;;;5076820;28;20206;-70
2022/08/13 04:55:46;;;;;;;4.13;3.73;;;-12.10;99.90;;;;;;5076244;28;20233;-70
2022/08/13 04:58:11;;;;;;;7.57;3.90;;;-14.10;99.90;;;;;;5075984;28;20235;-70
2022/08/13 05:00:37;;;;;;;5.70;3.40;;;-11.80;99.90;;;;;;5076053;28;20215;-70
2022/08/13 05:03:11;;;;;;;6.57;3.30;;;-13.80;99.90;;;;;;5076572;28;20186;-70
2022/08/13 05:05:37;;;;;;;6.13;3.97;;;-13.80;99.90;;;;;;5075711;28;20203;-71
2022/08/13 05:08:07;;;;;;;3.97;3.67;;;-16.90;99.90;;;;;;5090332;28;20183;-71
2022/08/13 05:10:37;;;;;;;3.83;3.63;;;-17.00;99.90;;;;;;5075349;28;20179;-71
2022/08/13 05:13:29;;;;;;;3.93;3.27;;;-13.60;99.90;;;;;;5075948;28;20202;-71
2022/08/13 05:15:58;;;;;;;3.83;3.13;;;-14.10;99.90;;;;;;5076581;28;20625;-71
2022/08/13 05:18:25;;;;;;;3.30;3.00;;;-11.30;99.90;;;;;;5081252;28;20531;-72
2022/08/13 05:20:55;;;;;;;6.10;3.93;;;-12.70;99.90;;;;;;5075064;28;20182;-70
2022/08/13 05:23:22;;;;;;;3.83;3.53;;;-10.40;99.90;;;;;;5075374;28;20183;-70
2022/08/13 05:25:49;;;;;;;4.00;3.70;;;-11.60;99.90;;;;;;5075589;28;20241;-71
2022/08/13 05:28:17;;;;;;;6.40;3.40;;;-11.40;99.90;;;;;;5075750;28;20187;-71
2022/08/13 05:30:46;;;;;;;8.23;4.93;;;-10.80;99.90;;;;;;5076068;28;20486;-74
2022/08/13 05:33:22;;;;;;;3.50;3.30;;;-11.20;99.90;;;;;;5076091;28;20201;-71
2022/08/13 05:35:50;;;;;;;8.07;3.03;;;-11.90;99.90;;;;;;5076363;28;20175;-71
2022/08/13 05:38:21;;;;;;;3.50;3.20;;;-13.60;99.90;;;;;;5075802;28;20241;-70
2022/08/13 05:40:51;;;;;;;4.43;3.53;;;-11.40;99.90;;;;;;5076073;28;21124;-73
2022/08/13 05:43:20;;;;;;;3.93;3.63;;;-11.40;99.90;;;;;;5075748;28;20770;-71
2022/08/13 05:46:07;;;;;;;5.30;3.97;;;-10.50;99.90;;;;;;5081444;28;20179;-70
2022/08/13 05:48:34;;;;;;;3.80;3.23;;;-11.70;99.90;;;;;;5075122;28;20502;-76
2022/08/13 05:51:03;;;;;;;5.13;3.20;;;-11.90;99.90;;;;;;5076684;28;20282;-74
2022/08/13 05:53:32;;;;;;;3.80;3.50;;;-12.20;99.90;;;;;;5078488;28;20195;-71
2022/08/13 05:55:58;;;;;;;7.77;3.73;;;-15.00;99.90;;;;;;5085250;28;20176;-70
2022/08/13 05:58:24;;;;;;;3.53;3.33;;;-15.60;99.90;;;;;;5079580;28;20183;-68
2022/08/13 06:03:36;;;;;;;3.20;2.90;;;-15.90;99.90;;;;;;5103915;28;20212;-69
2022/08/13 06:06:05;;;;;;;9.40;4.20;;;-14.00;99.90;;;;;;5100687;28;20185;-69
2022/08/13 06:08:35;;;;;;;8.50;3.70;;;-15.30;99.90;;;;;;5104949;28;20178;-70
2022/08/13 06:11:05;;;;;;;3.77;3.20;;;-17.00;99.90;;;;;;5097382;28;20182;-76
2022/08/13 06:13:33;;;;;;;5.07;4.43;;;-17.40;99.90;;;;;;5103937;28;20624;-70
2022/08/13 06:16:01;;;;;;;4.23;3.27;;;-19.70;99.90;;;;;;5086565;28;20270;-69
2022/08/13 06:18:32;;;;;;;4.17;3.40;;;-19.10;99.90;;;;;;5087568;28;20190;-69
2022/08/13 06:21:04;;;;;;;5.70;3.27;;;-16.30;99.90;;;;;;5089148;28;20171;-74
2022/08/13 06:23:34;;;;;;;7.13;4.00;;;-18.30;99.90;;;;;;5102384;28;20167;-76
2022/08/13 06:26:02;;;;;;;4.30;3.73;;;-18.70;99.90;;;;;;5100842;28;20593;-73
2022/08/13 06:28:32;;;;;;;7.70;3.17;;;-21.10;99.90;;;;;;5095217;28;20201;-70
2022/08/13 06:31:00;;;;;;;5.53;2.77;;;-21.20;99.90;;;;;;5086734;28;20617;-70
2022/08/13 06:33:30;;;;;;;5.17;2.60;;;-20.70;99.90;;;;;;5084995;28;20211;-74
2022/08/13 06:36:00;;;;;;;24.07;3.10;;;-21.30;99.90;;;;;;5081993;28;20180;-70
2022/08/13 06:38:49;;;;;;;6.60;3.23;;;-25.80;99.90;;;;;;5078309;28;20190;-69
2022/08/13 06:41:16;;;;;;;5.83;2.77;;;-23.00;99.90;;;;;;5077352;28;20188;-71
2022/08/13 06:43:47;;;;;;;3.37;2.87;;;-22.40;99.90;;;;;;5078376;28;20214;-73
2022/08/13 06:46:15;;;;;;;2.87;2.70;;;-20.20;99.90;;;;;;5079290;28;20190;-73
2022/08/13 06:48:41;;;;;;;2.67;2.47;;;-21.00;99.90;;;;;;5076088;28;20455;-69
2022/08/13 06:51:11;;;;;;;2.40;2.20;;;-25.50;96.20;;;;;;5079915;28;20199;-72
2022/08/13 06:53:40;;;;;;;2.77;2.07;;;-25.20;94.00;;;;;;5078323;28;20627;-69
2022/08/13 06:56:11;;;;;;;4.53;2.20;;;-24.10;93.40;;;;;;5078594;28;20175;-67
2022/08/13 06:58:38;;;;;;;4.13;2.70;;;-17.40;96.50;;;;;;5077923;28;20186;-68
2022/08/13 07:01:04;;;;;;;4.57;2.17;;;-17.30;93.90;;;;;;5077888;28;20187;-69
2022/08/13 07:03:32;;;;;;;3.40;2.90;;;-18.90;92.60;;;;;;5076464;28;20270;-72
2022/08/13 07:05:59;;;;;;;1.60;1.50;;;-20.50;91.00;;;;;;5077833;28;20206;-69
2022/08/13 07:08:27;;;;;;;2.73;1.87;;;-23.50;89.70;;;;;;5078368;28;20187;-70
2022/08/13 07:11:44;;;;;;;1.73;1.63;;;-19.10;88.50;;;;;;5078287;28;20179;-71
2022/08/13 07:13:44;;;;;;;2.57;1.80;;;-26.20;83.00;;;;;;5073207;28;20638;-70
2022/08/13 07:16:11;;;;;;;6.47;2.07;;;-20.20;85.30;;;;;;5077737;28;20276;-69
2022/08/13 07:18:38;;;;;;;1.87;1.70;;;-24.60;81.00;;;;;;5078210;28;20257;-70
2022/08/13 07:21:10;;;;;;;4.57;2.37;;;-27.30;79.70;;;;;;5076683;28;20206;-68
2022/08/13 07:23:37;;;;;;;1.90;1.80;;;-31.60;75.50;;;;;;5091660;28;20207;-68
2022/08/13 07:26:04;;;;;;;2.83;2.17;;;-27.60;77.60;;;;;;5078497;28;20179;-68
2022/08/13 07:28:31;;;;;;;1.40;1.27;;;-35.70;71.40;;;;;;5077335;28;20613;-71
2022/08/13 07:30:59;;;;;;;2.57;1.67;;;-32.50;73.80;;;;;;5079857;28;20617;-71
2022/08/13 07:33:25;;;;;;;2.60;1.77;;;-40.00;68.80;;;;;;5076879;28;20202;-68
2022/08/13 07:35:51;;;;;;;3.27;1.80;;;-36.90;69.40;;;;;;5094497;28;20179;-69
2022/08/13 07:38:16;;;;;;;4.40;1.70;;;-33.60;70.50;;;;;;5077932;28;20242;-69
2022/08/13 07:40:49;;;;;;;5.03;1.87;;;-36.50;69.00;;;;;;5077487;28;20187;-68
2022/08/13 07:43:18;;;;;;;3.73;1.90;;;-40.00;66.20;;;;;;5077942;28;20205;-69
2022/08/13 07:45:58;;;;;;;1.67;1.57;;;-40.00;66.90;;;;;;5077015;28;20179;-74
2022/08/13 07:48:25;;;;;;;1.50;1.50;;;-40.00;66.70;;;;;;5094476;28;20178;-71
2022/08/13 07:50:51;;;;;;;4.07;1.93;;;-40.00;64.80;;;;;;5102834;28;20206;-70
2022/08/13 07:53:17;;;;;;;2.13;1.77;;;-40.00;64.70;;;;;;5094501;28;20295;-73
2022/08/13 07:55:43;;;;;;;1.60;1.60;;;-40.00;64.40;;;;;;5091200;28;20574;-70
2022/08/13 07:58:10;;;;;;;2.57;2.13;;;-40.00;61.40;;;;;;5100864;28;20170;-69
2022/08/13 08:00:36;;;;;;;2.00;1.57;;;-40.00;61.90;;;;;;5091898;28;20196;-72
2022/08/13 08:03:02;;;;;;;4.77;1.80;;;-40.00;62.50;;;;;;5094411;28;20175;-68
2022/08/13 08:05:34;;;;;;;2.27;2.07;;;-40.00;63.70;;;;;;5076393;28;20186;-70
2022/08/13 08:08:00;;;;;;;6.60;3.77;;;-40.00;64.10;;;;;;5091126;28;20178;-68
2022/08/13 08:10:27;;;;;;;4.37;1.90;;;-40.00;63.60;;;;;;5089401;28;20202;-69
2022/08/13 08:13:00;;;;;;;1.47;1.37;;;-40.00;62.10;;;;;;5077594;28;20187;-69
2022/08/13 08:15:27;;;;;;;2.07;1.73;;;-40.00;62.70;;;;;;5090689;28;20656;-69
2022/08/13 08:17:54;;;;;;;4.53;2.13;;;23.30;96.10;;;;;;5088599;28;20175;-68
2022/08/13 08:20:21;;;;;;;5.87;2.03;;;23.80;96.60;;;;;;5079746;28;20172;-70
2022/08/13 08:22:50;;;;;;;3.73;2.70;;;23.90;95.80;;;;;;5089028;28;20266;-70
2022/08/13 08:25:18;;;;;;;4.73;2.30;;;24.00;95.50;;;;;;5092325;28;20829;-70
2022/08/13 08:27:44;;;;;;;8.13;2.07;;;24.10;95.30;;;;;;5075540;28;20179;-72
2022/08/13 08:30:17;;;;;;;3.90;1.87;;;23.70;95.10;;;;;;5084521;28;20254;-70
2022/08/13 08:32:53;;;;;;;2.80;1.80;;;-40.00;59.40;;;;;;5076238;28;20460;-68
2022/08/13 08:35:20;;;;;;;1.50;1.40;;;-40.00;58.10;;;;;;5076330;28;20182;-68
2022/08/13 08:43:33;;;;;;;3.13;2.10;;;-40.00;58.80;;;;;;5081106;28;20190;-70
2022/08/13 08:46:01;;;;;;;3.30;1.73;;;-40.00;58.40;;;;;;5076170;28;20199;-70
2022/08/13 08:48:29;;;;;;;1.50;1.40;;;-40.00;56.90;;;;;;5082905;28;20179;-70
2022/08/13 08:50:56;;;;;;;2.00;1.90;;;-40.00;56.50;;;;;;5076683;28;20451;-69
2022/08/13 08:53:24;;;;;;;2.57;1.40;;;-40.00;57.10;;;;;;5082322;28;20210;-69
2022/08/13 08:55:51;;;;;;;1.90;1.80;;;-40.00;55.80;;;;;;5076532;28;20190;-71
2022/08/13 08:58:21;;;;;;;1.93;1.83;;;-40.00;54.80;;;;;;5075119;28;20179;-72
2022/08/13 09:00:48;;;;;;;5.50;2.20;;;-40.00;52.90;;;;;;5076391;28;20187;-71
2022/08/13 09:03:19;;;;;;;2.20;1.73;;;-40.00;52.00;;;;;;5076129;28;20181;-71
2022/08/13 09:05:48;;;;;;;1.80;1.70;;;-40.00;51.30;;;;;;5076301;28;20185;-69
2022/08/13 09:08:18;;;;;;;3.70;1.43;;;-40.00;50.30;;;;;;5075488;28;20590;-70
2022/08/13 09:10:52;;;;;;;3.47;1.20;;;-40.00;51.10;;;;;;5081206;28;20290;-69
2022/08/13 09:13:21;;;;;;;2.13;1.93;;;-40.00;51.00;;;;;;5075373;28;20231;-70
2022/08/13 09:15:50;;;;;;;1.23;1.17;;;-40.00;51.90;;;;;;5074770;28;20175;-71
2022/08/13 09:18:19;;;;;;;2.20;1.33;;;-40.00;50.80;;;;;;5075560;28;20479;-72
2022/08/13 09:20:45;;;;;;;7.07;1.40;;;-40.00;49.50;;;;;;5082866;28;20210;-69
2022/08/13 09:23:14;;;;;;;1.43;1.33;;;-40.00;48.40;;;;;;5076343;28;21316;-71
2022/08/13 09:25:51;;;;;;;1.53;1.43;;;-40.00;48.50;;;;;;5076383;28;20218;-70
2022/08/13 09:28:23;;;;;;;2.20;1.27;;;-40.00;47.20;;;;;;5079298;28;20270;-69
2022/08/13 09:30:51;;;;;;;3.10;1.30;;;-40.00;47.90;;;;;;5093535;28;20465;-68
2022/08/13 09:33:19;;;;;;;4.33;1.50;;;-40.00;47.30;;;;;;5084673;28;20218;-70
2022/08/13 09:35:51;;;;;;;2.47;1.17;;;-40.00;47.10;;;;;;5079611;28;20182;-68
2022/08/13 09:38:21;;;;;;;1.10;1.10;;;-40.00;45.70;;;;;;5085298;28;20175;-71
2022/08/13 09:41:14;;;;;;;3.17;1.80;;;-40.00;46.50;;;;;;5080115;28;20183;-70
2022/08/13 09:43:42;;;;;;;4.00;1.23;;;-40.00;46.30;;;;;;5080202;28;20195;-71
2022/08/13 09:46:09;;;;;;;2.40;1.53;;;26.60;80.90;;;;;;5079476;28;20251;-70
2022/08/13 09:48:37;;;;;;;2.10;1.20;;;27.20;81.00;;;;;;5078992;28;20175;-70
2022/08/13 09:51:09;;;;;;;2.13;1.50;;;27.30;79.30;;;;;;5080175;28;20478;-70
2022/08/13 09:53:35;;;;;;;1.90;0.90;;;27.30;77.40;;;;;;5082129;28;20199;-70
2022/08/13 09:56:00;;;;;;;1.60;1.47;;;27.40;79.60;;;;;;5079271;28;20266;-71
2022/08/13 09:58:26;;;;;;;1.43;1.33;;;27.20;79.40;;;;;;5079043;28;20223;-70
2022/08/13 10:00:54;;;;;;;1.70;1.03;;;26.80;76.40;;;;;;5083525;28;20187;-70
2022/08/13 10:03:20;;;;;;;4.60;1.43;;;-40.00;39.90;;;;;;5079238;28;20175;-70
2022/08/13 10:05:47;;;;;;;0.83;0.83;;;-40.00;38.50;;;;;;5079889;28;20582;-72
2022/08/13 10:08:18;;;;;;;1.77;0.83;;;-40.00;38.40;;;;;;5079609;28;20250;-71
2022/08/13 10:10:47;;;;;;;1.67;1.40;;;-40.00;37.80;;;;;;5084036;28;20190;-70
2022/08/13 10:13:13;;;;;;;0.90;0.90;;;-40.00;38.60;;;;;;5083068;28;20576;-69
2022/08/13 10:15:41;;;;;;;1.30;1.30;;;-40.00;38.30;;;;;;5079532;28;20171;-69
2022/08/13 10:18:08;;;;;;;5.13;1.50;;;-40.00;39.40;;;;;;5078645;28;20217;-70
2022/08/13 10:20:36;;;;;;;1.27;1.27;;;-40.00;36.70;;;;;;5079484;28;20184;-71
2022/08/13 10:23:04;;;;;;;2.83;2.67;;;-40.00;36.40;;;;;;5079391;28;20175;-71
2022/08/13 10:25:30;;;;;;;1.70;1.60;;;-40.00;37.00;;;;;;5078371;28;20186;-71
2022/08/13 10:27:56;;;;;;;1.37;1.10;;;28.90;73.30;;;;;;5078882;28;20187;-70
2022/08/13 10:30:25;;;;;;;2.13;1.20;;;29.00;72.10;;;;;;5077119;28;20264;-70
2022/08/13 10:32:55;;;;;;;1.60;1.37;;;27.40;70.50;;;;;;5079306;28;20475;-70
2022/08/13 10:35:24;;;;;;;1.50;1.40;;;-40.00;33.70;;;;;;5079688;28;20178;-71
2022/08/13 10:37:56;;;;;;;2.30;1.00;;;-40.00;32.30;;;;;;5079602;28;20183;-68
2022/08/13 10:40:24;;;;;;;3.77;1.03;;;-40.00;33.40;;;;;;5078997;28;20181;-70
2022/08/13 10:42:52;;;;;;;6.33;1.03;;;-40.00;32.90;;;;;;5078815;28;20266;-71
2022/08/13 10:45:19;;;;;;;1.57;1.47;;;-40.00;31.30;;;;;;5077473;28;20607;-70
2022/08/13 10:47:50;;;;;;;0.90;0.90;;;-40.00;30.00;;;;;;5077849;28;20171;-71
2022/08/13 10:50:18;;;;;;;0.97;0.87;;;-40.00;29.60;;;;;;5083989;28;20728;-71
2022/08/13 10:52:44;;;;;;;2.57;1.13;;;-40.00;30.00;;;;;;5082472;28;20179;-71
2022/08/13 10:55:13;;;;;;;2.45;1.15;;;-40.00;29.20;;;;;;5077379;28;20242;-70
2022/08/13 10:57:42;;;;;;;1.90;1.17;;;-40.00;29.60;;;;;;5082655;28;20608;-70
2022/08/13 11:00:11;;;;;;;1.43;1.00;;;-40.00;28.40;;;;;;5077976;28;20182;-69
2022/08/13 11:02:37;;;;;;;3.00;1.03;;;-40.00;28.50;;;;;;5077215;28;20461;-69
2022/08/13 11:05:06;;;;;;;1.80;1.63;;;-40.00;28.30;;;;;;5077877;28;20183;-69
2022/08/13 11:07:33;;;;;;;2.95;1.17;;;16.50;54.30;;;;;;5078451;28;20591;-69
2022/08/13 11:09:59;;;;;;;1.17;1.15;;;30.70;61.30;;;;;;5077601;28;20254;-70
2022/08/13 11:12:25;;;;;;;0.90;0.90;;;30.80;61.20;;;;;;5078218;28;20175;-71
2022/08/13 11:14:52;;;;;;;2.83;1.45;;;30.10;59.70;;;;;;5076704;28;20195;-71
2022/08/13 11:17:19;;;;;;;1.25;1.15;;;30.80;62.30;;;;;;5077869;28;20505;-70
2022/08/13 11:19:46;;;;;;;1.38;0.93;;;31.10;60.50;;;;;;5077342;28;20553;-73
2022/08/13 11:22:13;;;;;;;1.48;1.25;;;31.10;59.90;;;;;;5077667;28;20455;-70
2022/08/13 11:24:38;;;;;;;2.25;1.42;;;30.30;58.30;;;;;;5077878;28;20183;-70
2022/08/13 11:27:05;;;;;;;0.75;0.75;;;30.80;57.10;;;;;;5077472;28;20179;-73
2022/08/13 11:29:31;;;;;;;0.77;0.77;;;29.50;56.60;;;;;;5076915;28;20183;-76
2022/08/13 11:31:57;;;;;;;1.48;1.00;;;31.20;55.30;;;;;;5076463;28;20198;-74
2022/08/13 11:34:25;;;;;;;0.85;0.85;;;31.30;55.50;;;;;;5077672;28;20213;-76
2022/08/13 11:36:52;;;;;;;1.73;0.75;;;31.30;55.40;;;;;;5078286;28;20194;-77
2022/08/13 11:39:18;;;;;;;1.02;1.02;;;31.00;56.80;;;;;;5077999;28;20630;-75
2022/08/13 11:41:44;;;;;;;0.93;0.93;;;32.20;58.00;;;;;;5076794;28;20179;-76
2022/08/13 11:44:10;;;;;;;0.95;0.82;;;30.30;55.70;;;;;;5077167;28;20278;-71
2022/08/13 11:46:37;;;;;;;2.10;0.90;;;32.20;55.30;;;;;;5076355;28;20195;-70
2022/08/13 11:49:04;;;;;;;2.00;1.02;;;31.40;54.50;;;;;;5076207;28;20175;-73
2022/08/13 11:51:31;;;;;;;1.83;0.95;;;28.70;52.10;;;;;;5086001;28;20628;-74
2022/08/13 11:53:57;;;;;;;2.92;2.30;;;33.70;54.70;;;;;;5077290;28;20272;-72
2022/08/13 11:56:23;;;;;;;1.35;1.35;;;-26.40;26.20;;;;;;5077113;28;20181;-75
2022/08/13 11:58:51;;;;;;;5.28;1.58;;;-11.30;30.30;;;;;;5076795;28;20187;-76
2022/08/13 12:01:18;;;;;;;2.05;1.02;;;-0.70;33.90;;;;;;5081447;28;20194;-76
2022/08/13 12:03:44;;;;;;;1.05;0.80;;;3.60;34.20;;;;;;5076707;28;20458;-75
2022/08/13 12:06:10;;;;;;;0.80;0.80;;;7.20;34.90;;;;;;5076617;28;20175;-72
2022/08/13 12:08:37;;;;;;;2.05;1.13;;;7.70;36.50;;;;;;5077146;28;20186;-71
2022/08/13 12:11:03;;;;;;;1.42;1.25;;;11.60;37.70;;;;;;5076820;28;20279;-74
2022/08/13 12:13:29;;;;;;;2.78;1.20;;;14.20;36.10;;;;;;5076555;28;20215;-72
2022/08/13 12:15:55;;;;;;;2.63;1.25;;;15.30;35.50;;;;;;5076231;28;20586;-72
2022/08/13 12:18:21;;;;;;;2.25;1.23;;;16.00;36.30;;;;;;5075598;28;20186;-73
2022/08/13 12:20:47;;;;;;;1.20;0.90;;;16.90;34.30;;;;;;5079513;28;20178;-69
2022/08/13 12:23:12;;;;;;;2.72;1.17;;;17.20;36.50;;;;;;5078289;28;20190;-72
2022/08/13 12:25:38;;;;;;;2.92;1.52;;;18.30;36.20;;;;;;5076532;28;20268;-74
2022/08/13 12:28:11;;;;;;;1.58;1.55;;;19.70;35.10;;;;;;5076279;28;20187;-72
2022/08/13 12:30:37;;;;;;;1.40;1.40;;;20.20;35.70;;;;;;5077563;28;20519;-71
2022/08/13 12:33:04;;;;;;;2.65;1.52;;;21.10;35.50;;;;;;5076256;28;20219;-74
2022/08/13 12:35:30;;;;;;;1.42;1.33;;;22.60;36.60;;;;;;5078012;28;20185;-73
2022/08/13 12:37:55;;;;;;;1.40;1.40;;;22.80;36.20;;;;;;5076790;28;20518;-73
2022/08/13 12:40:21;;;;;;;1.17;1.10;;;24.00;36.70;;;;;;5076105;28;20575;-73
2022/08/13 12:42:47;;;;;;;2.20;1.50;;;25.10;35.10;;;;;;5076776;28;20198;-75
2022/08/13 12:45:14;;;;;;;1.40;1.17;;;24.80;35.30;;;;;;5076085;28;20186;-71
2022/08/13 12:47:44;;;;;;;2.90;2.08;;;25.00;35.50;;;;;;5076574;28;20183;-71
2022/08/13 12:50:10;;;;;;;2.10;1.42;;;24.90;35.30;;;;;;5075615;28;20249;-73
2022/08/13 12:52:36;;;;;;;1.00;1.00;;;26.20;33.90;;;;;;5075551;28;20197;-72
2022/08/13 12:55:04;;;;;;;1.25;1.25;;;27.30;35.40;;;;;;5082001;28;20210;-71
2022/08/13 12:57:30;;;;;;;2.33;1.52;;;28.00;34.70;;;;;;5075919;28;20175;-71
2022/08/13 12:59:56;;;;;;;10.65;2.05;;;28.30;34.70;;;;;;5076826;28;20203;-72
2022/08/13 13:02:22;;;;;;;3.78;1.77;;;29.60;35.70;;;;;;5083475;28;20189;-70
2022/08/13 13:04:49;;;;;;;1.60;1.50;;;30.90;34.70;;;;;;5080555;28;20182;-72
2022/08/13 13:07:15;;;;;;;1.33;1.30;;;30.00;34.70;;;;;;5081084;28;20246;-73